KLVM/LVM METAR and TAF weather

Enter ICAO airport designator
Station Type Date Time Source
KLVM METAR 2021/09/25 02:53 UTC NOAA

KLVM 250253Z AUTO 24003KT 10SM CLR 13/01 A3013 RMK AO2 SLP194 T01330006 55000


Station Type Date Time Source
KLVM Decoded METAR 2021/09/25 02:53 UTC NOAA

LIVINGSTON MISSION FIELD, MT, United States (KLVM) 45-42N 110-26W 1418M
Sep 24, 2021 - 10:53 PM EDT / 2021.09.25 0253 UTC
Wind: from the WSW (240 degrees) at 3 MPH (3 KT):0
Visibility: 10 mile(s):0
Sky conditions: clear
Temperature: 55.9 F (13.3 C)
Dew Point: 33.1 F (0.6 C)
Relative Humidity: 41%
Pressure (altimeter): 30.13 in. Hg (1020 hPa)
Pressure tendency: 0.00 inches (0.0 hPa) lower than three hours ago
ob: KLVM 250253Z AUTO 24003KT 10SM CLR 13/01 A3013 RMK AO2 SLP194 T01330006 55000
cycle: 3

Station Type Date Time Source
KLVM TAF 2021/09/24 18:22 UTC NOAA

TAF KLVM 241720Z 2418/2518 25012KT P6SM SKC
FM250300 22013G21KT P6SM SCT250
FM250600 25008KT P6SM SKC

Example: see airport list